Time;durP1;ratioP1;P1;durP2;ratioP2;P2;SDS_P1;SDS_P2;PMS_P1;PMS_P2;Temp;Humidity;BMP_temperature;BMP_pressure;BME280_temperature;BME280_humidity;BME280_pressure;Samples;Min_cycle;Max_cycle;Signal;HPM_P1;HPM_P2
2023/12/08 00:01:37;;;;;;;;;;;2.10;85.20;;;;;;5049579;28;20018;-64
2023/12/08 00:04:10;;;;;;;;;;;2.10;85.20;;;;;;5046110;28;19936;-63
2023/12/08 00:06:44;;;;;;;;;;;2.10;85.30;;;;;;5046952;28;19932;-63
2023/12/08 00:09:17;;;;;;;;;;;2.00;85.30;;;;;;5048093;28;19924;-63
2023/12/08 00:11:50;;;;;;;;;;;2.00;85.00;;;;;;5047518;28;19928;-64
2023/12/08 00:14:23;;;;;;;;;;;2.00;85.20;;;;;;5048247;28;20019;-64
2023/12/08 00:16:49;;;;;;;;;;;2.00;85.10;;;;;;5044793;28;19983;-63
2023/12/08 00:19:23;;;;;;;;;;;2.00;85.20;;;;;;5045456;28;19925;-63
2023/12/08 00:21:58;;;;;;;;;;;2.00;85.20;;;;;;5047885;28;19982;-65
2023/12/08 00:24:35;;;;;;;;;;;2.00;85.20;;;;;;5048403;28;20435;-64
2023/12/08 00:27:08;;;;;;;;;;;2.00;85.10;;;;;;5039529;28;19925;-62
2023/12/08 00:29:41;;;;;;;;;;;1.90;85.00;;;;;;5046302;28;19925;-64
2023/12/08 00:32:14;;;;;;;;;;;1.90;85.40;;;;;;5045323;28;19932;-64
2023/12/08 00:34:47;;;;;;;;;;;2.00;85.30;;;;;;5021630;28;20380;-63
2023/12/08 00:37:21;;;;;;;;;;;2.00;85.20;;;;;;5049386;28;19929;-63
2023/12/08 00:39:55;;;;;;;;;;;2.10;85.00;;;;;;5044376;28;19964;-66
2023/12/08 00:42:28;;;;;;;;;;;2.10;84.90;;;;;;5047447;28;19935;-63
2023/12/08 00:45:01;;;;;;;;;;;2.10;84.70;;;;;;5044434;28;19936;-64
2023/12/08 00:47:34;;;;;;;;;;;2.10;84.70;;;;;;5031579;28;19928;-64
2023/12/08 00:50:08;;;;;;;;;;;2.10;84.70;;;;;;5046817;28;20376;-62
2023/12/08 00:52:42;;;;;;;;;;;2.00;84.80;;;;;;5047600;28;20375;-64
2023/12/08 00:55:17;;;;;;;;;;;2.10;84.80;;;;;;5045633;28;20019;-64
2023/12/08 00:57:50;;;;;;;;;;;2.10;84.70;;;;;;5049681;28;19932;-63
2023/12/08 01:00:23;;;;;;;;;;;2.00;84.50;;;;;;5049466;28;19925;-63
2023/12/08 01:02:56;;;;;;;;;;;2.00;84.80;;;;;;5043730;28;19935;-64
2023/12/08 01:05:29;;;;;;;;;;;2.00;84.60;;;;;;5048081;28;19974;-64
2023/12/08 01:08:03;;;;;;;;;;;2.10;84.60;;;;;;5049539;28;19924;-65
2023/12/08 01:10:37;;;;;;;;;;;2.10;84.60;;;;;;5047941;28;20040;-65
2023/12/08 01:13:10;;;;;;;;;;;2.10;84.60;;;;;;5020951;28;19929;-63
2023/12/08 01:15:43;;;;;;;;;;;2.10;84.70;;;;;;5047235;28;20372;-64
2023/12/08 01:18:16;;;;;;;;;;;2.10;84.60;;;;;;5045752;28;19951;-63
2023/12/08 01:20:49;;;;;;;;;;;2.10;84.40;;;;;;5047671;28;19960;-64
2023/12/08 01:23:23;;;;;;;;;;;2.00;84.60;;;;;;5051146;28;19933;-64
2023/12/08 01:25:57;;;;;;;;;;;2.10;84.20;;;;;;5049082;28;19925;-64
2023/12/08 01:28:23;;;;;;;;;;;2.10;84.20;;;;;;5050366;28;20050;-64
2023/12/08 01:30:56;;;;;;;;;;;2.10;84.50;;;;;;5049917;28;19936;-64
2023/12/08 01:33:29;;;;;;;;;;;2.10;84.40;;;;;;5051406;28;19933;-64
2023/12/08 01:36:02;;;;;;;;;;;2.20;84.40;;;;;;5053566;28;19931;-65
2023/12/08 01:38:37;;;;;;;;;;;2.20;84.40;;;;;;5051728;28;19964;-63
2023/12/08 01:41:13;;;;;;;;;;;2.20;84.20;;;;;;5051696;28;20016;-64
2023/12/08 01:43:46;;;;;;;;;;;2.10;84.10;;;;;;5052318;28;19954;-64
2023/12/08 01:46:19;;;;;;;;;;;2.10;84.00;;;;;;5047873;28;19933;-63
2023/12/08 01:48:53;;;;;;;;;;;2.10;84.00;;;;;;5051624;28;19924;-64
2023/12/08 01:51:26;;;;;;;;;;;2.00;84.10;;;;;;5052201;28;19991;-63
2023/12/08 01:54:01;;;;;;;;;;;2.20;84.10;;;;;;5052144;28;19928;-64
2023/12/08 01:56:35;;;;;;;;;;;2.20;83.90;;;;;;5051510;28;19933;-64
2023/12/08 01:59:08;;;;;;;;;;;2.20;83.70;;;;;;5052702;28;19956;-65
2023/12/08 02:01:42;;;;;;;;;;;2.10;83.90;;;;;;5053221;28;19932;-64
2023/12/08 02:04:15;;;;;;;;;;;2.20;83.80;;;;;;5049418;28;19932;-63
2023/12/08 02:06:48;;;;;;;;;;;2.10;83.90;;;;;;5054072;28;19932;-64
2023/12/08 02:09:23;;;;;;;;;;;2.20;84.00;;;;;;5052697;28;19925;-64
2023/12/08 02:12:04;;;;;;;;;;;2.20;83.90;;;;;;5048803;28;19952;-63
2023/12/08 02:14:38;;;;;;;;;;;2.20;83.90;;;;;;5034704;28;20011;-64
2023/12/08 02:17:14;;;;;;;;;;;2.20;83.80;;;;;;5051159;28;19955;-63
2023/12/08 02:19:47;;;;;;;;;;;2.20;83.70;;;;;;5053486;28;20307;-64
2023/12/08 02:22:24;;;;;;;;;;;2.10;83.80;;;;;;5047054;28;20376;-64
2023/12/08 02:24:59;;;;;;;;;;;2.20;83.80;;;;;;5051370;28;20002;-63
2023/12/08 02:27:33;;;;;;;;;;;2.10;83.80;;;;;;5047653;28;19944;-63
2023/12/08 02:30:00;;;;;;;;;;;2.10;83.80;;;;;;5046969;28;20414;-63
2023/12/08 02:32:34;;;;;;;;;;;2.00;83.50;;;;;;5047291;28;19924;-64
2023/12/08 02:35:08;;;;;;;;;;;2.10;83.80;;;;;;5050381;28;19928;-64
2023/12/08 02:37:42;;;;;;;;;;;2.10;83.80;;;;;;5049513;28;19937;-62
2023/12/08 02:40:17;;;;;;;;;;;2.10;83.70;;;;;;5051288;28;19931;-65
2023/12/08 02:42:51;;;;;;;;;;;2.20;83.80;;;;;;5049908;28;20016;-63
2023/12/08 02:45:24;;;;;;;;;;;2.20;83.60;;;;;;5048066;28;19975;-64
2023/12/08 02:47:57;;;;;;;;;;;2.10;83.90;;;;;;5047700;28;20380;-64
2023/12/08 02:50:30;;;;;;;;;;;2.20;83.80;;;;;;5048782;28;19960;-63
2023/12/08 02:53:03;;;;;;;;;;;2.20;83.70;;;;;;5049862;28;19932;-64
2023/12/08 02:55:31;;;;;;;;;;;2.20;83.60;;;;;;5048685;28;19925;-63
2023/12/08 02:58:05;;;;;;;;;;;2.20;83.60;;;;;;5049855;28;19933;-63
2023/12/08 03:00:38;;;;;;;;;;;2.20;83.40;;;;;;5049556;28;19929;-63
2023/12/08 03:03:11;;;;;;;;;;;2.20;83.60;;;;;;5048620;28;19939;-64
2023/12/08 03:05:44;;;;;;;;;;;2.20;83.50;;;;;;5047677;28;19932;-64
2023/12/08 03:08:17;;;;;;;;;;;2.20;83.50;;;;;;5049515;28;19936;-64
2023/12/08 03:10:51;;;;;;;;;;;2.20;83.30;;;;;;5047325;28;20019;-63
2023/12/08 03:13:24;;;;;;;;;;;2.20;83.60;;;;;;5048410;28;19944;-63
2023/12/08 03:15:57;;;;;;;;;;;2.20;83.50;;;;;;5048984;28;19928;-65
2023/12/08 03:18:30;;;;;;;;;;;2.20;83.30;;;;;;5049504;28;20295;-63
2023/12/08 03:21:03;;;;;;;;;;;2.20;83.10;;;;;;5042115;28;20028;-68
2023/12/08 03:23:36;;;;;;;;;;;2.20;83.20;;;;;;5050908;28;19929;-63
2023/12/08 03:26:10;;;;;;;;;;;2.20;83.10;;;;;;5047801;28;19925;-63
2023/12/08 03:28:44;;;;;;;;;;;2.20;83.10;;;;;;5044479;28;19937;-63
2023/12/08 03:31:24;;;;;;;;;;;2.20;83.10;;;;;;5048437;28;19929;-64
2023/12/08 03:33:57;;;;;;;;;;;2.10;83.10;;;;;;5047480;28;19935;-63
2023/12/08 03:36:24;;;;;;;;;;;2.20;83.20;;;;;;5047194;28;19929;-63
2023/12/08 03:38:57;;;;;;;;;;;2.20;83.20;;;;;;5049119;28;19929;-62
2023/12/08 03:41:31;;;;;;;;;;;2.10;83.20;;;;;;5049820;28;19970;-63
2023/12/08 03:44:05;;;;;;;;;;;2.20;83.10;;;;;;5048194;28;19929;-64
2023/12/08 03:46:38;;;;;;;;;;;2.20;83.30;;;;;;5048527;28;19935;-64
2023/12/08 03:49:11;;;;;;;;;;;2.10;83.30;;;;;;5046052;28;19935;-63
2023/12/08 03:51:44;;;;;;;;;;;2.20;83.30;;;;;;5048423;28;19975;-63
2023/12/08 03:54:17;;;;;;;;;;;2.20;83.30;;;;;;5049045;28;19928;-63
2023/12/08 03:56:51;;;;;;;;;;;2.20;83.20;;;;;;5049594;28;20874;-64
2023/12/08 03:59:55;;;;;;;;;;;2.20;83.10;;;;;;5047366;28;19935;-63
2023/12/08 04:02:28;;;;;;;;;;;2.20;82.80;;;;;;5049515;28;19933;-63
2023/12/08 04:05:01;;;;;;;;;;;2.20;83.00;;;;;;5046894;28;20055;-63
2023/12/08 04:07:34;;;;;;;;;;;2.10;82.70;;;;;;5040310;28;20437;-63
2023/12/08 04:10:07;;;;;;;;;;;2.20;83.10;;;;;;5045105;28;20002;-62
2023/12/08 04:12:35;;;;;;;;;;;2.20;83.00;;;;;;5045117;28;19951;-63
2023/12/08 04:15:09;;;;;;;;;;;2.20;83.00;;;;;;5047538;28;19968;-63
2023/12/08 04:17:42;;;;;;;;;;;2.20;83.00;;;;;;5048967;28;19982;-63
2023/12/08 04:20:15;;;;;;;;;;;2.20;83.10;;;;;;5047794;28;19932;-63
2023/12/08 04:22:41;;;;;;;;;;;2.20;83.10;;;;;;5045901;28;19929;-64
2023/12/08 04:25:15;;;;;;;;;;;2.20;83.00;;;;;;5046554;28;19932;-63
2023/12/08 04:27:49;;;;;;;;;;;2.20;83.00;;;;;;5048224;28;19928;-64
2023/12/08 04:30:22;;;;;;;;;;;2.10;82.90;;;;;;5048354;28;19998;-63
2023/12/08 04:32:55;;;;;;;;;;;2.20;83.10;;;;;;5044909;28;19924;-65
2023/12/08 04:35:28;;;;;;;;;;;2.20;83.00;;;;;;5047528;28;19955;-64
2023/12/08 04:38:02;;;;;;;;;;;2.20;82.90;;;;;;5046270;28;20012;-64
2023/12/08 04:40:35;;;;;;;;;;;2.20;83.00;;;;;;5048587;28;19943;-64
2023/12/08 04:43:09;;;;;;;;;;;2.20;83.00;;;;;;5048366;28;20024;-64
2023/12/08 04:45:42;;;;;;;;;;;2.30;82.80;;;;;;5046395;28;19929;-63
2023/12/08 04:48:16;;;;;;;;;;;2.20;82.90;;;;;;5046001;28;19924;-64
2023/12/08 04:50:51;;;;;;;;;;;2.20;83.00;;;;;;5048056;28;19932;-63
2023/12/08 04:53:24;;;;;;;;;;;2.20;83.10;;;;;;5046152;28;19928;-64
2023/12/08 04:55:57;;;;;;;;;;;2.20;83.10;;;;;;5050036;28;19940;-63
2023/12/08 04:58:31;;;;;;;;;;;2.20;83.20;;;;;;5055833;28;19932;-63
2023/12/08 05:01:05;;;;;;;;;;;2.20;83.20;;;;;;5053514;28;19932;-63
2023/12/08 05:03:41;;;;;;;;;;;2.20;83.20;;;;;;5053658;28;19932;-63
2023/12/08 05:06:17;;;;;;;;;;;2.20;83.20;;;;;;5052905;28;19971;-64
2023/12/08 05:08:50;;;;;;;;;;;2.20;83.00;;;;;;5053944;28;20010;-63
2023/12/08 05:11:23;;;;;;;;;;;2.20;82.90;;;;;;5053035;28;19924;-64
2023/12/08 05:13:57;;;;;;;;;;;2.20;82.90;;;;;;5053254;28;19990;-65
2023/12/08 05:16:31;;;;;;;;;;;2.10;82.80;;;;;;5053031;28;20016;-62
2023/12/08 05:19:04;;;;;;;;;;;2.10;83.20;;;;;;5052460;28;20011;-64
2023/12/08 05:21:37;;;;;;;;;;;2.10;83.20;;;;;;5053749;28;20375;-64
2023/12/08 05:24:10;;;;;;;;;;;2.20;83.20;;;;;;5054828;28;19978;-63
2023/12/08 05:26:43;;;;;;;;;;;2.20;82.90;;;;;;5054299;28;19931;-64
2023/12/08 05:29:17;;;;;;;;;;;2.20;82.70;;;;;;5054539;28;19932;-63
2023/12/08 05:31:51;;;;;;;;;;;2.20;82.60;;;;;;5055768;28;19935;-63
2023/12/08 05:34:24;;;;;;;;;;;2.10;82.10;;;;;;5056071;28;19929;-63
2023/12/08 05:36:57;;;;;;;;;;;2.20;82.70;;;;;;5055669;28;19929;-66
2023/12/08 05:39:30;;;;;;;;;;;2.20;82.60;;;;;;5055807;28;19932;-63
2023/12/08 05:42:06;;;;;;;;;;;2.20;82.60;;;;;;5053996;28;20006;-69
2023/12/08 05:44:40;;;;;;;;;;;2.30;82.50;;;;;;5052993;28;19929;-68
2023/12/08 05:47:13;;;;;;;;;;;2.30;82.50;;;;;;5051832;28;19972;-68
2023/12/08 05:49:46;;;;;;;;;;;2.30;82.60;;;;;;5055638;28;19925;-67
2023/12/08 05:52:19;;;;;;;;;;;2.30;82.40;;;;;;5055767;28;19936;-67
2023/12/08 05:54:52;;;;;;;;;;;2.20;82.50;;;;;;5054609;28;20049;-68
2023/12/08 05:57:25;;;;;;;;;;;2.20;82.70;;;;;;5054839;28;20391;-68
2023/12/08 05:59:59;;;;;;;;;;;2.20;82.70;;;;;;5056032;28;19936;-68
2023/12/08 06:02:39;;;;;;;;;;;2.30;82.70;;;;;;5057134;28;19929;-67
2023/12/08 06:05:13;;;;;;;;;;;2.20;82.70;;;;;;5048570;28;19928;-68
2023/12/08 06:07:52;;;;;;;;;;;2.20;82.60;;;;;;5052861;28;20015;-68
2023/12/08 06:10:26;;;;;;;;;;;2.30;82.80;;;;;;5052502;28;19924;-68
2023/12/08 06:12:59;;;;;;;;;;;2.20;82.70;;;;;;5051949;28;19951;-66
2023/12/08 06:15:33;;;;;;;;;;;2.20;82.80;;;;;;5051594;28;19925;-68
2023/12/08 06:18:07;;;;;;;;;;;2.20;82.90;;;;;;5052399;28;19929;-67
2023/12/08 06:20:40;;;;;;;;;;;2.20;82.90;;;;;;5051789;28;19932;-68
2023/12/08 06:23:13;;;;;;;;;;;2.20;83.00;;;;;;5049988;28;19929;-69
2023/12/08 06:25:46;;;;;;;;;;;2.20;83.10;;;;;;5047544;28;19933;-69
2023/12/08 06:28:19;;;;;;;;;;;2.20;83.10;;;;;;5051487;28;19939;-67
2023/12/08 06:30:56;;;;;;;;;;;2.20;83.30;;;;;;5048205;28;19935;-68
2023/12/08 06:33:29;;;;;;;;;;;2.20;83.40;;;;;;5049411;28;19975;-67
2023/12/08 06:36:03;;;;;;;;;;;2.10;83.50;;;;;;5050354;28;19925;-67
2023/12/08 06:38:37;;;;;;;;;;;2.20;83.60;;;;;;5050074;28;19932;-66
2023/12/08 06:41:11;;;;;;;;;;;2.20;83.70;;;;;;5051230;28;19925;-68
2023/12/08 06:43:44;;;;;;;;;;;2.10;83.70;;;;;;5050314;28;19925;-69
2023/12/08 06:46:18;;;;;;;;;;;2.10;83.80;;;;;;5048721;28;20015;-69
2023/12/08 06:48:52;;;;;;;;;;;2.10;83.90;;;;;;5044417;28;19925;-67
2023/12/08 06:51:25;;;;;;;;;;;2.20;84.10;;;;;;5048299;28;19928;-68
2023/12/08 06:53:58;;;;;;;;;;;2.10;84.00;;;;;;5050952;28;20452;-68
2023/12/08 06:56:32;;;;;;;;;;;2.20;84.00;;;;;;5050947;28;19925;-69
2023/12/08 06:59:05;;;;;;;;;;;2.10;84.10;;;;;;5049869;28;20446;-68
2023/12/08 07:01:39;;;;;;;;;;;2.20;84.30;;;;;;5049911;28;19936;-68
2023/12/08 07:04:13;;;;;;;;;;;2.20;84.30;;;;;;5044642;28;19933;-67
2023/12/08 07:06:46;;;;;;;;;;;2.10;84.20;;;;;;5043018;28;19947;-66
2023/12/08 07:09:20;;;;;;;;;;;2.10;84.40;;;;;;5043795;28;19986;-66
2023/12/08 07:11:53;;;;;;;;;;;2.10;84.60;;;;;;5048470;28;19978;-67
2023/12/08 07:14:26;;;;;;;;;;;2.00;84.90;;;;;;5050760;28;20425;-68
2023/12/08 07:17:00;;;;;;;;;;;2.10;84.80;;;;;;5044408;28;19944;-67
2023/12/08 07:19:34;;;;;;;;;;;2.00;84.80;;;;;;5044755;28;19936;-68
2023/12/08 07:22:07;;;;;;;;;;;2.10;84.90;;;;;;5049813;28;19935;-68
2023/12/08 07:24:40;;;;;;;;;;;2.10;85.00;;;;;;5051188;28;20023;-68
2023/12/08 07:27:13;;;;;;;;;;;2.00;84.90;;;;;;5044580;28;20286;-66
2023/12/08 07:29:46;;;;;;;;;;;2.00;85.20;;;;;;5048183;28;20498;-68
2023/12/08 07:32:20;;;;;;;;;;;2.00;85.30;;;;;;5049670;28;19933;-68
2023/12/08 07:34:47;;;;;;;;;;;2.00;85.40;;;;;;5049392;28;20387;-66
2023/12/08 07:37:20;;;;;;;;;;;2.00;85.40;;;;;;5049203;28;19924;-69
2023/12/08 07:39:53;;;;;;;;;;;2.10;85.40;;;;;;5047648;28;20011;-69
2023/12/08 07:42:26;;;;;;;;;;;2.10;85.30;;;;;;5049664;28;19929;-68
2023/12/08 07:44:59;;;;;;;;;;;2.10;85.30;;;;;;5046620;28;19974;-68
2023/12/08 07:47:33;;;;;;;;;;;2.10;85.30;;;;;;5051235;28;19932;-68
2023/12/08 07:50:07;;;;;;;;;;;2.10;85.40;;;;;;5049435;28;20007;-68
2023/12/08 07:52:34;;;;;;;;;;;2.10;85.40;;;;;;5050115;28;19964;-68
2023/12/08 07:55:07;;;;;;;;;;;2.10;85.40;;;;;;5050177;28;19956;-67
2023/12/08 07:57:49;;;;;;;;;;;2.10;85.50;;;;;;5048663;28;19925;-67
2023/12/08 08:00:23;;;;;;;;;;;2.10;85.40;;;;;;5049270;28;19936;-68
2023/12/08 08:02:57;;;;;;;;;;;2.10;85.40;;;;;;5049823;28;19932;-65
2023/12/08 08:05:30;;;;;;;;;;;2.10;85.40;;;;;;5049469;28;19932;-63
2023/12/08 08:08:03;;;;;;;;;;;2.10;85.40;;;;;;5048725;28;19931;-63
2023/12/08 08:10:36;;;;;;;;;;;2.10;85.50;;;;;;5048713;28;20788;-64
2023/12/08 08:13:09;;;;;;;;;;;2.10;85.40;;;;;;5048206;28;19924;-64
2023/12/08 08:15:42;;;;;;;;;;;2.10;85.50;;;;;;5047947;28;20007;-63
2023/12/08 08:18:16;;;;;;;;;;;2.10;85.50;;;;;;5048924;28;19932;-63
2023/12/08 08:20:50;;;;;;;;;;;2.10;85.40;;;;;;5049784;28;20027;-65
2023/12/08 08:23:23;;;;;;;;;;;2.20;85.40;;;;;;5049889;28;20391;-63
2023/12/08 08:25:56;;;;;;;;;;;2.20;85.40;;;;;;5048682;28;20047;-63
2023/12/08 08:28:29;;;;;;;;;;;2.20;85.40;;;;;;5047578;28;20318;-63
2023/12/08 08:31:09;;;;;;;;;;;2.10;85.50;;;;;;5047239;28;20019;-63
2023/12/08 08:33:43;;;;;;;;;;;2.10;85.50;;;;;;5050007;28;19925;-64
2023/12/08 08:36:17;;;;;;;;;;;2.20;85.60;;;;;;5049822;28;19937;-65
2023/12/08 08:38:50;;;;;;;;;;;2.20;85.50;;;;;;5049558;28;20371;-64
2023/12/08 08:41:17;;;;;;;;;;;2.20;85.40;;;;;;5049121;28;19964;-64
2023/12/08 08:43:50;;;;;;;;;;;2.10;85.60;;;;;;5048633;28;19929;-65
2023/12/08 08:46:23;;;;;;;;;;;2.20;85.50;;;;;;5047795;28;19939;-64
2023/12/08 08:48:57;;;;;;;;;;;2.10;85.50;;;;;;5049687;28;19929;-64
2023/12/08 08:51:38;;;;;;;;;;;2.10;85.60;;;;;;5041131;28;19932;-63
2023/12/08 08:54:11;;;;;;;;;;;2.10;85.60;;;;;;5049358;28;19928;-65
2023/12/08 08:56:44;;;;;;;;;;;2.10;85.60;;;;;;5049453;28;20384;-64
2023/12/08 08:59:17;;;;;;;;;;;2.20;85.50;;;;;;5048565;28;19933;-64
2023/12/08 09:01:50;;;;;;;;;;;2.20;85.50;;;;;;5048234;28;19990;-65
2023/12/08 09:04:24;;;;;;;;;;;2.20;85.40;;;;;;5049201;28;19933;-63
2023/12/08 09:06:57;;;;;;;;;;;2.20;85.40;;;;;;5048978;28;19928;-65
2023/12/08 09:09:30;;;;;;;;;;;2.20;85.50;;;;;;5049015;28;20000;-63
2023/12/08 09:12:04;;;;;;;;;;;2.20;85.70;;;;;;5049171;28;19929;-63
2023/12/08 09:14:38;;;;;;;;;;;2.10;85.60;;;;;;5049138;28;19932;-64
2023/12/08 09:17:11;;;;;;;;;;;2.20;85.60;;;;;;5049457;28;19986;-63
2023/12/08 09:19:45;;;;;;;;;;;2.20;85.60;;;;;;5047385;28;19933;-65
2023/12/08 09:22:18;;;;;;;;;;;2.20;85.60;;;;;;5048070;28;19925;-65
2023/12/08 09:24:51;;;;;;;;;;;2.10;85.70;;;;;;5049064;28;20020;-66
2023/12/08 09:27:24;;;;;;;;;;;2.20;85.80;;;;;;5048842;28;19931;-64
2023/12/08 09:29:57;;;;;;;;;;;2.20;85.70;;;;;;5046723;28;19955;-66
2023/12/08 09:32:30;;;;;;;;;;;2.20;85.70;;;;;;5049854;28;19931;-66
2023/12/08 09:35:05;;;;;;;;;;;2.30;85.60;;;;;;5047965;28;19983;-64
2023/12/08 09:37:38;;;;;;;;;;;2.30;85.70;;;;;;5049916;28;19925;-65
2023/12/08 09:40:12;;;;;;;;;;;2.30;85.60;;;;;;5047501;28;20015;-66
2023/12/08 09:42:48;;;;;;;;;;;2.30;85.70;;;;;;5049953;28;19928;-65
2023/12/08 09:45:21;;;;;;;;;;;2.30;85.70;;;;;;5051682;28;19952;-65
2023/12/08 09:47:55;;;;;;;;;;;2.30;85.70;;;;;;5051123;28;20006;-64
2023/12/08 09:50:30;;;;;;;;;;;2.30;86.00;;;;;;5051820;28;19925;-65
2023/12/08 09:53:04;;;;;;;;;;;2.20;86.10;;;;;;5047802;28;19935;-65
2023/12/08 09:55:38;;;;;;;;;;;2.20;86.10;;;;;;5052701;28;19979;-65
2023/12/08 09:58:12;;;;;;;;;;;2.30;86.30;;;;;;5051577;28;20016;-65
2023/12/08 10:00:46;;;;;;;;;;;2.30;86.10;;;;;;5053004;28;19928;-65
2023/12/08 10:03:20;;;;;;;;;;;2.30;86.00;;;;;;5051667;28;19979;-65
2023/12/08 10:05:55;;;;;;;;;;;2.40;86.10;;;;;;5052550;28;19952;-63
2023/12/08 10:08:30;;;;;;;;;;;2.40;85.90;;;;;;5051459;28;20028;-65
2023/12/08 10:11:05;;;;;;;;;;;2.40;86.00;;;;;;5050212;28;19936;-65
2023/12/08 10:13:38;;;;;;;;;;;2.40;85.90;;;;;;5051863;28;19924;-64
2023/12/08 10:16:11;;;;;;;;;;;2.30;86.10;;;;;;5051230;28;19960;-64
2023/12/08 10:18:44;;;;;;;;;;;2.30;86.20;;;;;;5051720;28;19933;-65
2023/12/08 10:21:19;;;;;;;;;;;2.40;86.30;;;;;;5051038;28;19940;-68
2023/12/08 10:23:59;;;;;;;;;;;2.40;86.20;;;;;;5049860;28;19932;-69
2023/12/08 10:26:32;;;;;;;;;;;2.40;86.00;;;;;;5050643;28;20364;-69
2023/12/08 10:29:06;;;;;;;;;;;2.30;86.30;;;;;;5045930;28;20364;-69
2023/12/08 10:31:40;;;;;;;;;;;2.30;86.40;;;;;;5050075;28;19929;-69
2023/12/08 10:34:14;;;;;;;;;;;2.30;86.30;;;;;;5051012;28;19978;-69
2023/12/08 10:36:49;;;;;;;;;;;2.40;86.30;;;;;;5050612;28;19933;-68
2023/12/08 10:39:22;;;;;;;;;;;2.30;86.50;;;;;;5049662;28;19939;-68
2023/12/08 10:41:56;;;;;;;;;;;2.40;86.50;;;;;;5049431;28;19929;-68
2023/12/08 10:44:29;;;;;;;;;;;2.40;86.60;;;;;;5049996;28;19925;-67
2023/12/08 10:47:02;;;;;;;;;;;2.40;86.50;;;;;;5045952;28;19925;-68
2023/12/08 10:49:43;;;;;;;;;;;2.40;86.50;;;;;;5049892;28;19942;-69
2023/12/08 10:52:19;;;;;;;;;;;2.50;86.40;;;;;;5048134;28;20417;-68
2023/12/08 10:54:52;;;;;;;;;;;2.50;86.30;;;;;;5049637;28;19949;-69
2023/12/08 10:57:25;;;;;;;;;;;2.40;86.30;;;;;;5048963;28;19956;-69
2023/12/08 10:59:58;;;;;;;;;;;2.50;86.40;;;;;;5047753;28;19925;-69
2023/12/08 11:02:33;;;;;;;;;;;2.50;86.20;;;;;;5050170;28;19929;-67
2023/12/08 11:05:07;;;;;;;;;;;2.50;86.40;;;;;;5049113;28;19994;-67
2023/12/08 11:07:43;;;;;;;;;;;2.50;86.20;;;;;;5049326;28;19940;-68
2023/12/08 11:10:16;;;;;;;;;;;2.60;86.20;;;;;;5045696;28;19947;-67
2023/12/08 11:12:51;;;;;;;;;;;2.50;86.10;;;;;;5051288;28;19929;-67
2023/12/08 11:15:27;;;;;;;;;;;2.60;86.20;;;;;;5046517;28;19941;-69
2023/12/08 11:18:04;;;;;;;;;;;2.60;86.10;;;;;;5043280;28;20387;-67
2023/12/08 11:20:37;;;;;;;;;;;2.50;86.10;;;;;;5049668;28;19960;-69
2023/12/08 11:23:18;;;;;;;;;;;2.50;86.10;;;;;;5048908;28;19931;-68
2023/12/08 11:25:59;;;;;;;;;;;2.60;86.30;;;;;;5049528;28;19940;-68
2023/12/08 11:28:36;;;;;;;;;;;2.70;86.20;;;;;;5048303;28;19980;-67
2023/12/08 11:31:13;;;;;;;;;;;2.60;86.10;;;;;;5046381;28;20056;-66
2023/12/08 11:33:50;;;;;;;;;;;2.60;86.20;;;;;;5047392;28;19931;-64
2023/12/08 11:36:23;;;;;;;;;;;2.70;86.10;;;;;;5048645;28;19933;-65
2023/12/08 11:38:57;;;;;;;;;;;2.70;86.10;;;;;;5049892;28;19995;-64
2023/12/08 11:41:30;;;;;;;;;;;2.70;86.00;;;;;;5049766;28;19936;-64
2023/12/08 11:47:39;;;;;;;;;;;2.70;86.10;;;;;;5048996;28;20387;-65
2023/12/08 11:50:12;;;;;;;;;;;2.70;86.20;;;;;;5046545;28;19932;-63
2023/12/08 11:52:45;;;;;;;;;;;2.80;86.10;;;;;;5048487;28;19929;-66
2023/12/08 11:55:22;;;;;;;;;;;2.80;86.20;;;;;;5046562;28;19979;-64
2023/12/08 11:58:05;;;;;;;;;;;2.80;86.20;;;;;;5049136;28;19975;-64
2023/12/08 12:00:39;;;;;;;;;;;2.80;86.20;;;;;;5045496;28;19933;-65
2023/12/08 12:03:12;;;;;;;;;;;2.90;86.10;;;;;;5047458;28;19932;-64
2023/12/08 12:05:47;;;;;;;;;;;2.90;86.10;;;;;;5046763;28;19937;-64
2023/12/08 12:08:21;;;;;;;;;;;2.90;86.20;;;;;;5047062;28;20031;-62
2023/12/08 12:10:56;;;;;;;;;;;2.90;86.20;;;;;;5048090;28;20006;-64
2023/12/08 12:13:32;;;;;;;;;;;2.90;86.20;;;;;;5048063;28;20006;-65
2023/12/08 12:16:05;;;;;;;;;;;2.90;86.20;;;;;;5048389;28;19925;-64
2023/12/08 12:18:38;;;;;;;;;;;2.90;86.30;;;;;;5045538;28;19936;-66
2023/12/08 12:21:11;;;;;;;;;;;2.90;86.30;;;;;;5048506;28;19932;-64
2023/12/08 12:23:46;;;;;;;;;;;2.90;86.50;;;;;;5048557;28;20024;-64
2023/12/08 12:26:15;;;;;;;;;;;2.90;86.50;;;;;;5046894;28;19933;-64
2023/12/08 12:28:48;;;;;;;;;;;3.00;86.50;;;;;;5043317;28;19924;-65
2023/12/08 12:31:21;;;;;;;;;;;2.90;86.40;;;;;;5046992;28;19928;-64
2023/12/08 12:33:55;;;;;;;;;;;3.00;86.40;;;;;;5046465;28;19964;-63
2023/12/08 12:36:28;;;;;;;;;;;2.90;86.40;;;;;;5046136;28;19957;-63
2023/12/08 12:39:03;;;;;;;;;;;2.90;86.60;;;;;;5047531;28;19936;-64
2023/12/08 12:41:37;;;;;;;;;;;2.90;86.70;;;;;;5049471;28;20008;-60
2023/12/08 12:44:10;;;;;;;;;;;2.90;86.60;;;;;;5048690;28;19929;-61
2023/12/08 12:46:43;;;;;;;;;;;2.90;86.70;;;;;;5048386;28;19976;-60
2023/12/08 12:49:16;;;;;;;;;;;3.00;86.80;;;;;;5048187;28;19935;-62
2023/12/08 12:51:49;;;;;;;;;;;2.90;86.80;;;;;;5049600;28;19936;-61
2023/12/08 12:54:31;;;;;;;;;;;2.90;86.90;;;;;;5049525;28;19929;-63
2023/12/08 12:57:06;;;;;;;;;;;2.90;87.20;;;;;;5049121;28;19928;-62
2023/12/08 12:59:50;;;;;;;;;;;2.90;87.10;;;;;;5047601;28;20023;-60
2023/12/08 13:02:29;;;;;;;;;;;2.90;87.20;;;;;;5048971;28;20395;-61
2023/12/08 13:05:04;;;;;;;;;;;2.90;87.40;;;;;;5049402;28;19924;-62
2023/12/08 13:07:37;;;;;;;;;;;2.80;87.80;;;;;;5049134;28;20023;-61
2023/12/08 13:10:10;;;;;;;;;;;2.80;88.00;;;;;;5049122;28;19936;-61
2023/12/08 13:12:44;;;;;;;;;;;2.70;88.10;;;;;;5047732;28;20539;-61
2023/12/08 13:15:18;;;;;;;;;;;2.80;88.20;;;;;;5049012;28;19925;-62
2023/12/08 13:17:51;;;;;;;;;;;2.70;88.40;;;;;;5050745;28;20027;-62
2023/12/08 13:20:24;;;;;;;;;;;2.80;88.30;;;;;;5052949;28;19978;-61
2023/12/08 13:22:57;;;;;;;;;;;2.90;88.10;;;;;;5051436;28;19928;-62
2023/12/08 13:25:30;;;;;;;;;;;3.00;87.90;;;;;;5048028;28;20326;-62
2023/12/08 13:28:04;;;;;;;;;;;3.00;87.80;;;;;;5052982;28;19935;-61
2023/12/08 13:30:38;;;;;;;;;;;2.90;88.10;;;;;;5049764;28;19935;-62
2023/12/08 13:33:11;;;;;;;;;;;3.00;88.20;;;;;;5046815;28;20357;-62
2023/12/08 13:35:47;;;;;;;;;;;3.00;88.00;;;;;;5052929;28;19980;-62
2023/12/08 13:38:20;;;;;;;;;;;3.00;87.90;;;;;;5048523;28;19935;-60
2023/12/08 13:40:53;;;;;;;;;;;3.00;88.10;;;;;;5050555;28;19987;-62
2023/12/08 13:43:28;;;;;;;;;;;3.00;88.10;;;;;;5052574;28;19929;-62
2023/12/08 13:46:01;;;;;;;;;;;2.90;88.20;;;;;;5047052;28;19929;-62
2023/12/08 13:48:35;;;;;;;;;;;2.90;88.40;;;;;;5049000;28;19932;-61
2023/12/08 13:51:08;;;;;;;;;;;3.00;88.30;;;;;;5049091;28;19928;-63
2023/12/08 13:53:41;;;;;;;;;;;2.90;88.40;;;;;;5051424;28;19929;-62
2023/12/08 13:56:15;;;;;;;;;;;2.90;88.60;;;;;;5050172;28;19929;-62
2023/12/08 13:58:56;;;;;;;;;;;2.90;88.50;;;;;;5051216;28;20006;-61
2023/12/08 14:01:29;;;;;;;;;;;2.90;88.60;;;;;;5032696;28;19929;-61
2023/12/08 14:04:02;;;;;;;;;;;3.00;88.40;;;;;;5050421;28;20525;-61
2023/12/08 14:06:35;;;;;;;;;;;2.90;88.50;;;;;;5049234;28;20306;-62
2023/12/08 14:09:09;;;;;;;;;;;2.90;88.60;;;;;;5049198;28;19935;-61
2023/12/08 14:11:43;;;;;;;;;;;3.00;88.50;;;;;;5047734;28;19979;-62
2023/12/08 14:14:18;;;;;;;;;;;2.90;88.70;;;;;;5048527;28;19931;-62
2023/12/08 14:16:51;;;;;;;;;;;3.00;88.60;;;;;;5050962;28;20003;-62
2023/12/08 14:19:24;;;;;;;;;;;3.00;88.50;;;;;;5050473;28;20437;-62
2023/12/08 14:21:58;;;;;;;;;;;2.90;88.80;;;;;;5047833;28;19925;-60
2023/12/08 14:24:31;;;;;;;;;;;2.90;88.90;;;;;;5048947;28;20015;-60
2023/12/08 14:27:04;;;;;;;;;;;2.80;88.90;;;;;;5048408;28;19933;-62
2023/12/08 14:29:38;;;;;;;;;;;2.90;89.00;;;;;;5047530;28;20003;-62
2023/12/08 14:32:13;;;;;;;;;;;2.90;88.90;;;;;;5047183;28;19925;-62
2023/12/08 14:34:46;;;;;;;;;;;3.00;88.80;;;;;;5049374;28;19931;-62
2023/12/08 14:37:19;;;;;;;;;;;2.90;89.00;;;;;;5051504;28;19939;-63
2023/12/08 14:39:52;;;;;;;;;;;3.00;88.90;;;;;;5041024;28;19954;-61
2023/12/08 14:42:25;;;;;;;;;;;2.90;88.90;;;;;;5047834;28;19947;-62
2023/12/08 14:45:00;;;;;;;;;;;3.00;88.80;;;;;;5047461;28;19956;-62
2023/12/08 14:47:33;;;;;;;;;;;3.00;88.80;;;;;;5032367;28;20288;-62
2023/12/08 14:50:21;;;;;;;;;;;3.10;88.80;;;;;;5047385;28;21414;-62
2023/12/08 14:53:02;;;;;;;;;;;3.10;88.70;;;;;;5051770;28;19931;-61
2023/12/08 14:55:35;;;;;;;;;;;3.00;88.40;;;;;;5049772;28;19955;-62
2023/12/08 14:58:08;;;;;;;;;;;3.00;88.60;;;;;;5050354;28;19929;-62
2023/12/08 15:00:46;;;;;;;;;;;3.00;88.70;;;;;;5049654;28;19935;-62
2023/12/08 15:03:19;;;;;;;;;;;3.00;88.80;;;;;;5049688;28;19929;-73
2023/12/08 15:05:53;;;;;;;;;;;3.10;88.70;;;;;;5032941;28;19925;-74
2023/12/08 15:08:26;;;;;;;;;;;3.10;88.60;;;;;;5031709;28;20848;-74
2023/12/08 15:10:59;;;;;;;;;;;3.10;88.50;;;;;;5049473;28;19929;-75
2023/12/08 15:13:32;;;;;;;;;;;3.10;88.70;;;;;;5051029;28;19956;-73